Time;durP1;ratioP1;P1;durP2;ratioP2;P2;SDS_P1;SDS_P2;PMS_P1;PMS_P2;Temp;Humidity;BMP_temperature;BMP_pressure;BME280_temperature;BME280_humidity;BME280_pressure;Samples;Min_cycle;Max_cycle;Signal;HPM_P1;HPM_P2
2022/11/10 00:00:36;;;;;;;7.63;2.97;;;21.10;62.00;;;;;;5030162;28;20017;-75
2022/11/10 00:03:21;;;;;;;7.07;3.10;;;21.20;59.20;;;;;;5028074;28;20024;-75
2022/11/10 00:06:07;;;;;;;7.35;3.28;;;21.20;60.00;;;;;;5028325;28;20028;-75
2022/11/10 00:08:52;;;;;;;8.88;3.30;;;21.30;60.40;;;;;;5028808;28;20029;-73
2022/11/10 00:11:36;;;;;;;11.57;3.90;;;21.30;61.50;;;;;;5026511;28;20080;-75
2022/11/10 00:17:24;;;;;;;7.15;3.65;;;21.30;62.40;;;;;;5053180;28;20040;-75
2022/11/10 00:20:09;;;;;;;11.88;4.07;;;21.30;62.30;;;;;;5022370;28;20038;-75
2022/11/10 00:22:54;;;;;;;10.98;4.25;;;21.40;63.80;;;;;;5025597;28;20365;-75
2022/11/10 00:25:38;;;;;;;10.18;4.18;;;21.40;64.30;;;;;;5028107;28;20037;-75
2022/11/10 00:28:23;;;;;;;8.88;4.30;;;21.40;62.80;;;;;;5029493;28;20044;-75
2022/11/10 00:31:07;;;;;;;11.18;4.00;;;21.30;62.00;;;;;;5029093;28;20022;-76
2022/11/10 00:33:51;;;;;;;18.20;4.55;;;21.30;63.60;;;;;;5029561;28;20524;-75
2022/11/10 00:36:35;;;;;;;11.10;4.25;;;21.40;63.30;;;;;;5033727;28;20502;-75
2022/11/10 00:39:20;;;;;;;16.50;4.63;;;21.30;63.20;;;;;;5033022;28;20483;-75
2022/11/10 00:42:05;;;;;;;13.13;4.53;;;21.40;63.40;;;;;;5029305;28;20442;-75
2022/11/10 00:44:49;;;;;;;12.35;4.32;;;21.30;63.40;;;;;;5032320;28;20022;-75
2022/11/10 00:47:33;;;;;;;9.65;4.43;;;21.40;63.70;;;;;;5031111;28;20553;-76
2022/11/10 00:50:17;;;;;;;11.57;4.38;;;21.30;63.80;;;;;;5046224;28;20052;-74
2022/11/10 00:53:02;;;;;;;19.15;4.38;;;21.30;64.50;;;;;;5031221;28;20072;-74
2022/11/10 00:55:47;;;;;;;13.38;4.07;;;21.30;64.40;;;;;;5032587;28;20029;-75
2022/11/10 00:58:32;;;;;;;11.63;4.72;;;21.30;64.30;;;;;;5030498;28;20091;-75
2022/11/10 01:01:17;;;;;;;12.10;4.38;;;21.30;64.50;;;;;;5033097;28;20022;-75
2022/11/10 01:04:02;;;;;;;16.13;4.95;;;21.30;64.50;;;;;;5030795;28;20192;-75
2022/11/10 01:06:47;;;;;;;12.80;4.45;;;21.40;64.60;;;;;;5032059;28;20013;-75
2022/11/10 01:09:31;;;;;;;8.23;3.88;;;21.30;64.70;;;;;;5032615;28;20383;-75
2022/11/10 01:12:15;;;;;;;15.75;3.90;;;21.40;64.90;;;;;;5031131;28;20045;-76
2022/11/10 01:15:00;;;;;;;15.52;4.13;;;21.40;64.90;;;;;;5033284;28;20044;-75
2022/11/10 01:17:44;;;;;;;12.35;4.03;;;21.30;64.90;;;;;;5026226;28;20026;-75
2022/11/10 01:20:28;;;;;;;13.32;4.53;;;21.40;65.10;;;;;;5023706;28;20075;-74
2022/11/10 01:23:13;;;;;;;15.57;4.43;;;21.30;65.20;;;;;;5031509;28;20108;-75
2022/11/10 01:26:03;;;;;;;11.73;4.22;;;21.30;65.10;;;;;;5032265;28;20056;-75
2022/11/10 01:28:47;;;;;;;12.30;4.38;;;21.40;65.30;;;;;;5031842;28;20117;-75
2022/11/10 01:31:32;;;;;;;11.23;4.20;;;21.40;65.50;;;;;;5030966;28;21456;-75
2022/11/10 01:34:16;;;;;;;12.57;4.25;;;21.40;65.40;;;;;;5031875;28;20383;-75
2022/11/10 01:37:01;;;;;;;14.95;4.78;;;21.40;65.60;;;;;;5031461;28;20549;-75
2022/11/10 01:39:45;;;;;;;14.00;4.20;;;21.40;65.60;;;;;;5032737;28;20038;-75
2022/11/10 01:42:52;;;;;;;12.13;3.95;;;21.40;65.70;;;;;;5029232;28;20537;-75
2022/11/10 01:45:44;;;;;;;11.85;3.67;;;21.40;65.80;;;;;;5029002;28;20040;-75
2022/11/10 01:48:37;;;;;;;10.45;4.25;;;21.30;65.70;;;;;;5032430;28;20057;-75
2022/11/10 01:51:30;;;;;;;14.32;3.97;;;21.30;65.80;;;;;;5032290;28;20029;-75
2022/11/10 01:54:37;;;;;;;12.65;4.38;;;21.30;65.80;;;;;;5031249;28;20112;-75
2022/11/10 01:57:21;;;;;;;15.55;4.25;;;21.30;65.90;;;;;;5032022;28;20467;-75
2022/11/10 02:00:07;;;;;;;12.60;3.75;;;21.40;66.00;;;;;;5031155;28;20045;-75
2022/11/10 02:03:04;;;;;;;11.82;4.97;;;21.40;66.00;;;;;;5030190;28;20040;-75
2022/11/10 02:05:49;;;;;;;15.60;4.18;;;21.40;66.20;;;;;;5025138;28;20029;-75
2022/11/10 02:08:35;;;;;;;17.17;4.05;;;21.40;66.20;;;;;;5025253;28;20108;-75
2022/11/10 02:11:20;;;;;;;10.20;3.97;;;21.30;66.00;;;;;;5031991;28;20026;-75
2022/11/10 02:14:04;;;;;;;9.27;3.90;;;21.30;66.10;;;;;;5031094;28;20100;-75
2022/11/10 02:16:48;;;;;;;12.52;3.95;;;21.40;66.30;;;;;;5031002;28;20086;-75
2022/11/10 02:19:40;;;;;;;12.45;4.22;;;21.30;66.10;;;;;;5026491;28;20059;-75
2022/11/10 02:22:24;;;;;;;9.98;4.10;;;21.40;66.30;;;;;;5029595;28;20036;-75
2022/11/10 02:25:10;;;;;;;12.65;3.90;;;21.40;66.20;;;;;;5028868;28;20029;-75
2022/11/10 02:27:54;;;;;;;9.10;3.80;;;21.40;66.30;;;;;;5030606;28;20029;-75
2022/11/10 02:30:38;;;;;;;11.63;4.45;;;21.40;66.40;;;;;;5028791;28;20032;-76
2022/11/10 02:33:23;;;;;;;14.85;3.70;;;21.40;66.40;;;;;;5030399;28;20219;-75
2022/11/10 02:36:08;;;;;;;10.25;4.13;;;21.40;66.50;;;;;;5029577;28;20396;-75
2022/11/10 02:38:52;;;;;;;12.20;4.10;;;21.40;66.60;;;;;;5032404;28;20032;-75
2022/11/10 02:41:37;;;;;;;14.88;4.00;;;21.40;66.70;;;;;;5029743;28;20026;-76
2022/11/10 02:44:21;;;;;;;9.52;3.63;;;21.40;66.80;;;;;;5031246;28;20037;-75
2022/11/10 02:47:06;;;;;;;13.07;3.72;;;21.40;66.80;;;;;;5026848;28;20024;-75
2022/11/10 02:49:50;;;;;;;10.90;3.80;;;21.30;66.80;;;;;;5031255;28;20475;-75
2022/11/10 02:52:35;;;;;;;8.18;3.90;;;21.30;66.90;;;;;;5022332;28;20030;-75
2022/11/10 02:55:19;;;;;;;11.32;3.38;;;21.40;67.10;;;;;;5031856;28;20096;-74
2022/11/10 02:58:04;;;;;;;13.35;4.05;;;21.30;67.10;;;;;;5030924;28;20017;-75
2022/11/10 03:00:48;;;;;;;8.00;3.60;;;21.30;67.30;;;;;;5029238;28;20040;-75
2022/11/10 03:03:32;;;;;;;9.68;3.70;;;21.40;67.20;;;;;;5022556;28;20547;-75
2022/11/10 03:06:17;;;;;;;10.52;4.22;;;21.30;67.00;;;;;;5030930;28;20028;-75
2022/11/10 03:09:01;;;;;;;14.10;3.80;;;21.30;67.00;;;;;;5030160;28;20392;-75
2022/11/10 03:11:45;;;;;;;10.52;3.90;;;21.30;67.00;;;;;;5028496;28;20461;-75
2022/11/10 03:14:30;;;;;;;9.20;4.28;;;21.30;67.00;;;;;;5029225;28;20033;-75
2022/11/10 03:17:14;;;;;;;7.03;3.40;;;21.30;67.00;;;;;;5030383;28;20060;-75
2022/11/10 03:19:58;;;;;;;11.02;3.75;;;21.30;67.00;;;;;;5028544;28;20479;-75
2022/11/10 03:22:43;;;;;;;10.07;3.42;;;21.40;67.10;;;;;;5024329;28;20498;-75
2022/11/10 03:25:27;;;;;;;12.90;3.95;;;21.40;67.10;;;;;;5026520;28;20676;-75
2022/11/10 03:28:12;;;;;;;8.57;3.55;;;21.40;67.20;;;;;;5027186;28;20172;-75
2022/11/10 03:30:56;;;;;;;8.55;3.20;;;21.40;67.30;;;;;;5028860;28;20582;-75
2022/11/10 03:33:40;;;;;;;9.82;3.75;;;21.40;67.30;;;;;;5027254;28;20364;-75
2022/11/10 03:36:25;;;;;;;8.45;3.70;;;21.30;67.30;;;;;;5027217;28;20400;-75
2022/11/10 03:39:09;;;;;;;6.82;3.53;;;21.30;67.30;;;;;;5030049;28;20029;-75
2022/11/10 03:41:53;;;;;;;8.35;3.40;;;21.30;67.30;;;;;;5029701;28;20021;-75
2022/11/10 03:44:38;;;;;;;7.88;3.88;;;21.30;67.90;;;;;;5022824;28;20416;-74
2022/11/10 03:47:22;;;;;;;9.88;3.40;;;21.30;67.50;;;;;;5030315;28;20026;-75
2022/11/10 03:50:07;;;;;;;8.65;3.95;;;21.40;67.60;;;;;;5027235;28;20013;-75
2022/11/10 03:52:51;;;;;;;7.57;3.80;;;21.30;67.40;;;;;;5028627;28;20048;-75
2022/11/10 03:55:36;;;;;;;10.35;4.28;;;21.30;67.10;;;;;;5030098;28;20076;-75
2022/11/10 03:58:20;;;;;;;7.68;3.67;;;21.30;67.30;;;;;;5029546;28;20031;-75
2022/11/10 04:01:04;;;;;;;8.90;3.67;;;21.30;67.30;;;;;;5029645;28;20040;-75
2022/11/10 04:03:49;;;;;;;8.63;3.58;;;21.40;67.30;;;;;;5025314;28;20025;-75
2022/11/10 04:09:37;;;;;;;11.48;3.72;;;21.40;67.80;;;;;;5017109;28;20014;-75
2022/11/10 04:15:43;;;;;;;10.00;3.60;;;21.30;67.80;;;;;;5029079;28;20538;-75
2022/11/10 04:18:28;;;;;;;9.23;3.67;;;21.40;67.30;;;;;;5028509;28;20079;-75
2022/11/10 04:21:12;;;;;;;9.65;3.90;;;21.40;67.30;;;;;;5029698;28;20018;-75
2022/11/10 04:23:57;;;;;;;8.70;3.42;;;21.40;67.40;;;;;;5029431;28;20538;-75
2022/11/10 04:26:43;;;;;;;7.03;3.22;;;21.40;67.60;;;;;;5022316;28;20487;-75
2022/11/10 04:29:27;;;;;;;10.10;4.30;;;21.40;67.60;;;;;;5028931;28;20014;-75
2022/11/10 04:32:11;;;;;;;7.90;3.35;;;21.40;67.70;;;;;;5028175;28;20018;-75
2022/11/10 04:34:56;;;;;;;8.50;3.40;;;21.40;67.60;;;;;;5029743;28;20033;-75
2022/11/10 04:37:40;;;;;;;8.98;3.45;;;21.40;67.60;;;;;;5028250;28;20036;-74
2022/11/10 04:40:25;;;;;;;7.80;3.75;;;21.40;67.80;;;;;;5029670;28;20388;-74
2022/11/10 04:43:09;;;;;;;8.77;3.70;;;21.40;67.60;;;;;;5029080;28;20029;-74
2022/11/10 04:45:54;;;;;;;8.43;3.70;;;21.40;67.90;;;;;;5065984;22;20104;-78
2022/11/10 04:48:38;;;;;;;9.18;3.70;;;21.40;68.00;;;;;;5042567;28;20083;-78
2022/11/10 04:51:29;;;;;;;8.45;3.58;;;21.40;67.80;;;;;;5064427;28;20527;-78
2022/11/10 04:54:13;;;;;;;8.88;3.38;;;21.40;67.90;;;;;;5039137;28;20035;-78
2022/11/10 04:56:57;;;;;;;10.25;3.95;;;21.40;67.90;;;;;;5056966;28;20067;-78
2022/11/10 04:59:41;;;;;;;8.23;3.78;;;21.40;67.90;;;;;;5039602;28;20043;-78
2022/11/10 05:02:26;;;;;;;9.85;3.65;;;21.40;68.00;;;;;;5056829;28;20517;-77
2022/11/10 05:05:10;;;;;;;7.60;3.60;;;21.40;68.20;;;;;;5035642;28;20577;-78
2022/11/10 05:07:55;;;;;;;8.70;3.60;;;21.40;68.10;;;;;;5027016;28;20040;-78
2022/11/10 05:10:39;;;;;;;8.25;3.65;;;21.40;68.20;;;;;;5045135;28;20368;-79
2022/11/10 05:13:23;;;;;;;9.23;3.55;;;21.40;68.00;;;;;;5056835;28;20025;-78
2022/11/10 05:16:08;;;;;;;6.53;3.20;;;21.40;68.00;;;;;;5055824;28;20028;-77
2022/11/10 05:18:54;;;;;;;9.27;3.60;;;21.40;68.00;;;;;;5047616;28;20391;-78
2022/11/10 05:21:39;;;;;;;9.02;3.67;;;21.50;68.00;;;;;;5049984;28;20178;-78
2022/11/10 05:24:23;;;;;;;9.50;3.90;;;21.40;67.90;;;;;;5055775;28;20042;-78
2022/11/10 05:27:07;;;;;;;6.82;3.42;;;21.40;68.10;;;;;;5061195;28;20534;-78
2022/11/10 05:29:52;;;;;;;8.82;3.72;;;21.40;68.10;;;;;;5049462;28;20544;-78
2022/11/10 05:32:37;;;;;;;8.60;4.10;;;21.40;68.30;;;;;;5054741;28;20028;-78
2022/11/10 05:35:22;;;;;;;8.60;3.80;;;21.40;68.30;;;;;;5063539;28;20036;-77
2022/11/10 05:38:06;;;;;;;13.07;4.30;;;21.40;68.30;;;;;;5061463;28;20018;-77
2022/11/10 05:40:51;;;;;;;8.75;3.50;;;21.40;68.30;;;;;;5057688;28;20071;-77
2022/11/10 05:43:35;;;;;;;7.90;3.50;;;21.40;68.40;;;;;;5043071;28;20081;-78
2022/11/10 05:46:19;;;;;;;10.90;3.88;;;21.40;68.50;;;;;;5037745;28;20083;-76
2022/11/10 05:49:03;;;;;;;8.85;3.75;;;21.40;68.40;;;;;;5064702;28;20039;-75
2022/11/10 05:51:48;;;;;;;14.73;5.20;;;21.50;68.60;;;;;;5049944;28;20028;-75
2022/11/10 05:54:32;;;;;;;10.90;5.00;;;21.50;68.40;;;;;;5052163;28;20036;-75
2022/11/10 05:57:17;;;;;;;12.18;4.22;;;21.50;68.30;;;;;;5038108;28;20433;-75
2022/11/10 06:00:05;;;;;;;10.45;3.95;;;21.50;68.10;;;;;;5059582;28;20029;-76
2022/11/10 06:02:59;;;;;;;12.45;4.78;;;21.50;68.00;;;;;;5055193;28;20112;-76
2022/11/10 06:05:44;;;;;;;13.75;4.70;;;21.40;67.90;;;;;;5059184;28;20032;-76
2022/11/10 06:08:28;;;;;;;9.75;4.10;;;21.40;67.70;;;;;;5047080;28;20107;-76
2022/11/10 06:11:12;;;;;;;9.32;4.30;;;21.40;67.70;;;;;;5045389;28;20029;-75
2022/11/10 06:13:56;;;;;;;12.18;4.97;;;21.40;67.70;;;;;;5050341;28;20035;-74
2022/11/10 06:16:41;;;;;;;12.48;5.05;;;21.40;67.70;;;;;;5017690;28;20036;-73
2022/11/10 06:19:25;;;;;;;12.30;5.03;;;21.50;68.50;;;;;;5058950;28;20028;-74
2022/11/10 06:22:09;;;;;;;14.55;4.80;;;21.50;68.50;;;;;;5029228;28;20505;-74
2022/11/10 06:24:54;;;;;;;25.95;5.47;;;21.50;70.00;;;;;;5063713;28;20036;-74
2022/11/10 06:27:42;;;;;;;17.45;5.25;;;21.50;68.70;;;;;;5034208;28;20069;-74
2022/11/10 06:30:28;;;;;;;17.05;5.57;;;21.50;69.20;;;;;;5066729;28;20021;-74
2022/11/10 06:33:12;;;;;;;16.73;5.93;;;21.50;69.40;;;;;;5037415;28;20029;-74
2022/11/10 06:35:57;;;;;;;23.67;6.32;;;21.50;68.60;;;;;;5049043;28;20079;-71
2022/11/10 06:38:41;;;;;;;19.27;6.60;;;21.50;69.10;;;;;;5054523;28;20036;-74
2022/11/10 06:41:25;;;;;;;23.40;6.70;;;21.60;68.10;;;;;;5062159;28;20385;-74
2022/11/10 06:44:11;;;;;;;20.45;5.22;;;21.50;69.00;;;;;;5056539;28;20551;-74
2022/11/10 06:46:55;;;;;;;25.20;5.32;;;21.60;69.70;;;;;;5062715;28;20029;-75
2022/11/10 06:49:39;;;;;;;23.05;6.10;;;21.70;68.90;;;;;;5052697;28;20036;-75
2022/11/10 06:52:26;;;;;;;22.80;5.90;;;21.70;69.20;;;;;;5047522;28;20135;-74
2022/11/10 06:55:14;;;;;;;22.40;5.45;;;21.60;69.00;;;;;;5044329;28;20044;-75
2022/11/10 06:58:00;;;;;;;17.27;5.05;;;21.60;68.80;;;;;;5060030;28;20053;-75
2022/11/10 07:00:45;;;;;;;22.35;5.05;;;21.60;68.60;;;;;;5041281;28;20032;-75
2022/11/10 07:03:29;;;;;;;25.88;5.15;;;21.60;68.20;;;;;;5031417;28;20032;-75
2022/11/10 07:06:16;;;;;;;23.17;4.30;;;21.60;68.90;;;;;;5031579;28;20076;-73
2022/11/10 07:09:03;;;;;;;22.10;7.80;;;21.40;63.90;;;;;;5032104;28;20036;-75
2022/11/10 07:11:47;;;;;;;48.75;25.23;;;20.90;57.60;;;;;;5025643;28;20043;-74
2022/11/10 07:14:32;;;;;;;23.85;10.50;;;20.40;56.10;;;;;;5045342;28;20162;-73
2022/11/10 07:17:16;;;;;;;15.18;6.15;;;20.10;56.90;;;;;;5043719;28;20040;-74
2022/11/10 07:20:00;;;;;;;18.55;4.78;;;19.70;57.60;;;;;;5038295;28;20087;-73
2022/11/10 07:22:44;;;;;;;15.15;4.28;;;19.40;57.40;;;;;;5051100;28;20364;-73
2022/11/10 07:25:31;;;;;;;17.92;5.50;;;19.80;58.50;;;;;;5051303;28;20070;-73
2022/11/10 07:28:15;;;;;;;16.52;4.68;;;20.10;58.90;;;;;;5050701;28;20405;-73
2022/11/10 07:31:03;;;;;;;21.30;4.63;;;20.30;58.90;;;;;;5050972;28;20025;-73
2022/11/10 07:33:47;;;;;;;26.02;4.90;;;20.50;59.30;;;;;;5050900;28;20056;-73
2022/11/10 07:36:31;;;;;;;13.32;4.15;;;20.60;59.80;;;;;;5051118;28;20389;-73
2022/11/10 07:39:16;;;;;;;16.25;4.95;;;20.70;60.00;;;;;;5033298;28;20052;-73
2022/11/10 07:42:00;;;;;;;14.18;4.55;;;20.80;60.30;;;;;;5050285;28;20083;-73
2022/11/10 07:44:44;;;;;;;13.30;3.90;;;20.90;60.60;;;;;;5050830;28;20470;-73
2022/11/10 07:47:29;;;;;;;15.30;4.43;;;20.90;60.90;;;;;;5050817;28;20029;-73
2022/11/10 07:50:13;;;;;;;13.82;4.10;;;21.00;61.00;;;;;;5051169;28;20031;-73
2022/11/10 07:53:12;;;;;;;14.38;4.40;;;21.00;61.20;;;;;;5050689;28;20025;-73
2022/11/10 07:55:57;;;;;;;18.10;5.40;;;21.00;61.60;;;;;;5033147;28;20063;-73
2022/11/10 07:58:41;;;;;;;15.88;4.93;;;21.10;61.80;;;;;;5051059;28;20094;-73
2022/11/10 08:01:26;;;;;;;16.50;4.90;;;21.10;62.00;;;;;;5050717;28;20155;-73
2022/11/10 08:04:10;;;;;;;19.23;5.55;;;21.10;62.30;;;;;;5050289;28;20032;-73
2022/11/10 08:06:54;;;;;;;19.25;5.75;;;21.20;62.70;;;;;;5050733;28;20052;-73
2022/11/10 08:09:39;;;;;;;15.57;5.78;;;21.20;63.00;;;;;;5050919;28;20029;-73
2022/11/10 08:12:23;;;;;;;14.40;4.93;;;21.20;63.10;;;;;;5050462;28;20021;-73
2022/11/10 08:15:08;;;;;;;25.38;6.00;;;21.20;63.20;;;;;;5050595;28;20029;-73
2022/11/10 08:18:01;;;;;;;19.00;5.68;;;21.20;63.60;;;;;;5050751;28;20099;-73
2022/11/10 08:20:45;;;;;;;20.13;6.10;;;21.20;63.70;;;;;;5032986;28;20502;-73
2022/11/10 08:23:30;;;;;;;16.35;5.47;;;21.20;64.20;;;;;;5050479;28;20367;-73
2022/11/10 08:26:16;;;;;;;17.20;5.35;;;21.20;63.70;;;;;;5035621;28;20127;-73
2022/11/10 08:29:01;;;;;;;18.23;5.32;;;21.30;64.00;;;;;;5035200;28;20051;-73
2022/11/10 08:31:45;;;;;;;17.10;5.35;;;21.30;64.30;;;;;;5050723;28;20051;-73
2022/11/10 08:34:29;;;;;;;20.42;6.10;;;21.30;64.10;;;;;;5050332;28;20029;-73
2022/11/10 08:37:14;;;;;;;17.83;5.70;;;21.30;64.40;;;;;;5050469;28;20037;-73
2022/11/10 08:39:58;;;;;;;16.40;5.25;;;21.30;64.60;;;;;;5050689;28;20120;-73
2022/11/10 08:42:43;;;;;;;17.98;5.68;;;21.30;64.50;;;;;;5050243;28;20032;-73
2022/11/10 08:45:28;;;;;;;18.92;5.70;;;21.30;64.70;;;;;;5032600;28;20448;-73
2022/11/10 08:48:15;;;;;;;19.67;6.03;;;21.30;64.80;;;;;;5050633;28;20029;-73
2022/11/10 08:51:00;;;;;;;20.00;6.72;;;21.30;65.00;;;;;;5050593;28;20060;-73
2022/11/10 08:53:44;;;;;;;21.25;6.78;;;21.30;65.20;;;;;;5052669;28;20108;-73
2022/11/10 08:56:30;;;;;;;21.00;7.18;;;21.30;65.10;;;;;;5054247;28;20032;-74
2022/11/10 08:59:14;;;;;;;21.52;6.65;;;21.30;65.10;;;;;;5054548;28;20035;-73
2022/11/10 09:01:58;;;;;;;20.88;7.13;;;21.30;65.10;;;;;;5054236;28;20125;-73
2022/11/10 09:04:43;;;;;;;20.17;6.95;;;21.40;65.60;;;;;;5053697;28;20029;-73
2022/11/10 09:07:30;;;;;;;19.92;6.40;;;21.40;65.70;;;;;;5053967;28;20029;-73
2022/11/10 09:10:14;;;;;;;18.45;6.22;;;21.40;65.60;;;;;;5054049;28;20055;-73
2022/11/10 09:13:00;;;;;;;17.10;5.88;;;21.40;65.90;;;;;;5053481;28;20029;-74
2022/11/10 09:15:44;;;;;;;18.58;6.50;;;21.40;65.80;;;;;;5038734;28;20055;-74
2022/11/10 09:18:29;;;;;;;17.95;6.28;;;21.40;66.20;;;;;;5053860;28;20025;-74
2022/11/10 09:21:13;;;;;;;20.08;6.10;;;21.40;66.30;;;;;;5038738;28;20292;-74
2022/11/10 09:23:58;;;;;;;18.23;6.18;;;21.40;66.30;;;;;;5053347;28;20032;-74
2022/11/10 09:26:46;;;;;;;17.98;6.00;;;21.40;66.30;;;;;;5053767;28;20521;-73
2022/11/10 09:29:30;;;;;;;17.48;6.43;;;21.40;66.40;;;;;;5053656;28;20071;-73
2022/11/10 09:32:14;;;;;;;16.67;5.75;;;21.40;66.40;;;;;;5053777;28;20450;-73
2022/11/10 09:34:59;;;;;;;16.63;5.95;;;21.40;66.30;;;;;;5053607;28;20033;-73
2022/11/10 09:37:44;;;;;;;15.45;5.57;;;21.40;66.50;;;;;;5035632;28;20144;-73
2022/11/10 09:40:50;;;;;;;18.45;5.72;;;21.40;66.40;;;;;;5053483;28;20112;-73
2022/11/10 09:44:05;;;;;;;16.02;5.63;;;21.40;66.40;;;;;;5053012;28;20048;-73
2022/11/10 09:47:19;;;;;;;13.13;5.28;;;21.40;66.40;;;;;;5053682;28;20027;-73
2022/11/10 09:50:05;;;;;;;17.92;5.60;;;21.40;66.60;;;;;;5052906;28;20021;-73
2022/11/10 09:52:51;;;;;;;18.60;6.28;;;21.50;66.60;;;;;;5037644;28;20708;-73
2022/11/10 09:55:42;;;;;;;15.02;5.50;;;21.40;66.70;;;;;;5053251;28;20397;-73
2022/11/10 09:58:34;;;;;;;14.82;5.32;;;21.40;66.70;;;;;;5053008;28;20017;-73
2022/11/10 10:01:24;;;;;;;16.35;5.68;;;21.40;66.60;;;;;;5053069;28;20021;-73
2022/11/10 10:04:33;;;;;;;15.43;5.80;;;21.40;66.60;;;;;;5051704;28;20060;-74
2022/11/10 10:07:40;;;;;;;16.73;6.03;;;21.40;66.90;;;;;;5037773;28;20086;-74
2022/11/10 10:10:48;;;;;;;13.85;4.85;;;21.40;66.90;;;;;;5052910;28;20021;-74
2022/11/10 10:14:03;;;;;;;14.00;5.00;;;21.40;67.60;;;;;;5052428;28;20521;-73
2022/11/10 10:17:10;;;;;;;15.82;5.53;;;21.40;67.20;;;;;;5052864;28;20025;-74
2022/11/10 10:20:44;;;;;;;18.75;5.35;;;21.40;66.90;;;;;;5052583;28;20052;-74
2022/11/10 10:23:45;;;;;;;13.77;5.38;;;21.40;67.30;;;;;;5052146;28;20039;-73
2022/11/10 10:26:32;;;;;;;15.25;5.78;;;21.40;67.20;;;;;;5052583;28;20034;-73
2022/11/10 10:29:39;;;;;;;15.65;5.63;;;21.40;67.30;;;;;;5052568;28;20024;-72
2022/11/10 10:32:25;;;;;;;15.10;4.97;;;21.40;67.20;;;;;;5037443;28;20040;-73
2022/11/10 10:35:17;;;;;;;15.77;5.70;;;21.40;67.70;;;;;;5052286;28;20086;-73
2022/11/10 10:38:04;;;;;;;16.48;5.43;;;21.40;67.20;;;;;;5052386;28;20028;-73
2022/11/10 10:40:50;;;;;;;14.20;4.90;;;21.40;67.50;;;;;;5052608;28;20112;-73
2022/11/10 10:43:35;;;;;;;13.90;5.25;;;21.40;67.40;;;;;;5020111;28;20048;-74
2022/11/10 10:46:25;;;;;;;14.60;5.25;;;21.40;67.40;;;;;;5037043;28;20036;-73
2022/11/10 10:49:16;;;;;;;;;;;21.40;67.30;;;;;;5052506;28;20025;-73
2022/11/10 10:52:23;;;;;;;14.98;5.13;;;21.40;67.30;;;;;;5052133;28;20014;-73
2022/11/10 10:55:12;;;;;;;12.80;5.07;;;21.40;67.30;;;;;;5051736;28;20025;-73
2022/11/10 10:58:02;;;;;;;14.05;4.63;;;21.40;67.30;;;;;;5051810;28;20528;-73
2022/11/10 11:00:53;;;;;;;11.50;4.50;;;21.40;67.20;;;;;;5051868;28;20075;-73
2022/11/10 11:03:46;;;;;;;12.50;5.05;;;21.40;67.40;;;;;;5051387;28;20024;-73
2022/11/10 11:06:32;;;;;;;12.40;4.40;;;21.40;67.40;;;;;;5034050;28;20664;-74
2022/11/10 11:09:21;;;;;;;13.88;5.75;;;21.40;67.60;;;;;;5051794;28;20445;-73
2022/11/10 11:12:13;;;;;;;13.18;5.25;;;21.40;67.40;;;;;;5051758;28;20021;-73
2022/11/10 11:15:15;;;;;;;10.80;4.97;;;21.40;67.50;;;;;;5051419;28;20024;-73
2022/11/10 11:18:14;;;;;;;15.35;5.72;;;21.40;67.60;;;;;;5051542;28;20044;-73
2022/11/10 11:21:36;;;;;;;10.75;4.90;;;21.40;67.50;;;;;;5051719;28;20078;-74
2022/11/10 11:24:33;;;;;;;13.13;4.82;;;21.40;67.60;;;;;;5038336;28;20044;-73
2022/11/10 11:27:24;;;;;;;11.35;5.00;;;21.40;67.70;;;;;;5051618;28;20067;-73
2022/11/10 11:30:12;;;;;;;12.95;5.15;;;21.40;67.80;;;;;;5033450;28;20044;-73
2022/11/10 11:33:08;;;;;;;12.80;5.25;;;21.40;67.80;;;;;;5033378;28;20033;-74
2022/11/10 11:36:34;;;;;;;13.95;5.10;;;21.40;67.80;;;;;;5033189;28;20048;-73
2022/11/10 11:39:24;;;;;;;13.45;5.32;;;21.40;67.90;;;;;;5036167;28;20021;-73
2022/11/10 11:42:30;;;;;;;12.60;4.88;;;21.40;68.00;;;;;;5051282;28;20399;-73
2022/11/10 11:45:26;;;;;;;14.50;5.15;;;21.40;68.50;;;;;;5050776;28;20037;-73
2022/11/10 11:48:38;;;;;;;11.75;4.57;;;21.40;68.10;;;;;;5033642;28;20044;-73
2022/11/10 11:51:41;;;;;;;11.82;4.65;;;21.40;68.00;;;;;;5050964;28;20075;-73
2022/11/10 11:55:03;;;;;;;12.05;4.82;;;21.40;67.90;;;;;;5035356;28;20070;-73
2022/11/10 11:58:07;;;;;;;12.73;4.90;;;21.40;68.00;;;;;;5050899;28;20095;-74
2022/11/10 12:01:00;;;;;;;10.75;4.47;;;21.40;68.00;;;;;;5050653;28;20021;-73
2022/11/10 12:04:28;;;;;;;13.43;4.90;;;21.40;68.00;;;;;;5050463;28;20041;-74
2022/11/10 12:07:35;;;;;;;11.35;4.70;;;21.40;67.90;;;;;;4934828;29;20113;-74
2022/11/10 12:10:45;;;;;;;13.68;5.00;;;21.40;68.00;;;;;;5032651;28;20474;-74
2022/11/10 12:13:42;;;;;;;10.15;4.07;;;21.40;67.90;;;;;;5050552;28;20028;-73
2022/11/10 12:16:29;;;;;;;12.10;4.60;;;21.40;67.80;;;;;;5050482;28;20028;-74
2022/11/10 12:19:36;;;;;;;14.90;4.80;;;21.40;67.90;;;;;;5033142;28;20047;-74
2022/11/10 12:22:47;;;;;;;12.80;4.47;;;21.30;67.90;;;;;;5050784;28;20372;-74
2022/11/10 12:26:02;;;;;;;12.15;4.65;;;21.30;68.10;;;;;;5050640;28;20395;-74
2022/11/10 12:28:52;;;;;;;15.40;5.28;;;21.30;68.10;;;;;;5053443;28;20056;-74
2022/11/10 12:31:40;;;;;;;11.15;4.40;;;21.40;68.00;;;;;;5054685;28;20501;-73
2022/11/10 12:34:30;;;;;;;9.30;4.40;;;21.40;68.00;;;;;;5054259;28;20025;-74
2022/11/10 12:37:27;;;;;;;11.68;4.65;;;21.40;67.90;;;;;;5054639;28;20060;-73
2022/11/10 12:40:17;;;;;;;9.60;4.07;;;21.40;68.10;;;;;;5054562;28;20025;-73
2022/11/10 12:43:05;;;;;;;12.50;4.67;;;21.40;68.10;;;;;;5054400;28;20029;-73
2022/11/10 12:45:55;;;;;;;12.50;4.72;;;21.40;68.10;;;;;;5054330;28;20121;-74
2022/11/10 12:48:59;;;;;;;8.90;4.10;;;21.40;68.00;;;;;;5054259;28;20227;-73
2022/11/10 12:52:20;;;;;;;10.05;4.32;;;21.40;68.00;;;;;;5054734;28;20060;-74
2022/11/10 12:55:05;;;;;;;10.40;4.25;;;21.40;67.90;;;;;;5054230;28;20025;-73
2022/11/10 12:57:50;;;;;;;9.82;4.38;;;21.40;67.90;;;;;;5054249;28;20024;-73
2022/11/10 13:00:43;;;;;;;11.80;4.57;;;21.40;68.00;;;;;;5054308;28;20040;-73
2022/11/10 13:03:35;;;;;;;11.45;4.30;;;21.40;67.90;;;;;;5054177;28;20513;-73
2022/11/10 13:06:32;;;;;;;13.13;5.22;;;21.40;68.10;;;;;;5053976;28;20406;-73
2022/11/10 13:09:21;;;;;;;10.70;4.43;;;21.40;68.00;;;;;;5054192;28;20021;-73
2022/11/10 13:12:09;;;;;;;11.80;4.85;;;21.40;68.10;;;;;;5054009;28;20032;-73
2022/11/10 13:14:53;;;;;;;11.60;4.40;;;21.40;68.00;;;;;;5053643;28;20031;-73
2022/11/10 13:17:38;;;;;;;10.40;3.97;;;21.40;68.10;;;;;;5036009;28;20033;-74
2022/11/10 13:20:40;;;;;;;9.20;3.97;;;21.40;68.00;;;;;;5053763;28;20394;-74
2022/11/10 13:23:43;;;;;;;10.27;4.30;;;21.40;68.00;;;;;;5053495;28;20478;-73
2022/11/10 13:26:39;;;;;;;10.05;4.25;;;21.40;68.00;;;;;;5053724;28;20124;-73
2022/11/10 13:29:41;;;;;;;10.90;4.85;;;21.40;68.10;;;;;;5053735;28;20492;-73
2022/11/10 13:32:33;;;;;;;11.15;4.10;;;21.40;68.00;;;;;;5053681;28;20017;-73
2022/11/10 13:35:26;;;;;;;10.82;4.53;;;21.40;68.20;;;;;;5053677;28;20180;-74
2022/11/10 13:38:37;;;;;;;8.80;4.10;;;21.40;68.20;;;;;;5053694;28;20025;-74
2022/11/10 13:41:24;;;;;;;9.52;3.70;;;21.40;68.20;;;;;;5035322;28;20064;-73
2022/11/10 13:44:46;;;;;;;10.43;4.30;;;21.40;68.20;;;;;;5053001;28;20029;-74
2022/11/10 13:47:54;;;;;;;10.23;4.13;;;21.30;68.30;;;;;;5053253;28;20075;-74
2022/11/10 13:51:05;;;;;;;8.23;4.18;;;21.30;68.20;;;;;;5053289;28;20430;-73
2022/11/10 13:54:14;;;;;;;10.27;4.07;;;21.40;68.30;;;;;;5052874;28;20078;-73
2022/11/10 13:57:06;;;;;;;9.75;3.95;;;21.40;68.20;;;;;;5053125;28;20086;-74
2022/11/10 13:59:55;;;;;;;8.98;4.53;;;21.30;68.30;;;;;;5053231;28;20471;-74
2022/11/10 14:02:47;;;;;;;9.13;4.13;;;21.40;68.20;;;;;;5052552;28;20037;-73
2022/11/10 14:05:32;;;;;;;9.05;4.45;;;21.30;68.10;;;;;;5052947;28;20052;-73
2022/11/10 14:08:21;;;;;;;10.70;4.18;;;21.40;68.20;;;;;;5052987;28;20128;-73
2022/11/10 14:11:12;;;;;;;10.32;4.47;;;21.40;68.10;;;;;;5037617;28;20029;-73
2022/11/10 14:14:11;;;;;;;8.93;3.88;;;21.40;68.20;;;;;;5037460;28;20119;-73
2022/11/10 14:16:55;;;;;;;9.30;4.03;;;21.40;68.10;;;;;;5035020;28;20033;-73
2022/11/10 14:19:44;;;;;;;10.20;4.28;;;21.40;68.00;;;;;;5053073;28;20040;-73
2022/11/10 14:22:39;;;;;;;9.80;4.00;;;21.40;68.00;;;;;;5037249;28;20029;-73
2022/11/10 14:25:35;;;;;;;8.95;4.10;;;21.40;68.00;;;;;;5052434;28;20460;-73
2022/11/10 14:28:28;;;;;;;8.48;4.25;;;21.40;68.10;;;;;;5037455;28;20096;-73
2022/11/10 14:31:20;;;;;;;8.98;4.40;;;21.40;68.00;;;;;;5052465;28;20431;-73
2022/11/10 14:34:11;;;;;;;10.52;4.47;;;21.40;68.00;;;;;;5052102;28;20025;-73
2022/11/10 14:36:57;;;;;;;7.30;4.18;;;21.40;68.10;;;;;;5052368;28;20029;-74
2022/11/10 14:39:42;;;;;;;8.55;3.85;;;21.30;67.90;;;;;;5052852;28;20078;-73
2022/11/10 14:42:29;;;;;;;9.88;4.22;;;21.40;68.00;;;;;;5037050;28;20032;-73